createdAt,value
2024-03-16T00:02:01.606Z,9.30
2024-03-16T00:04:30.374Z,9.30
2024-03-16T00:06:59.952Z,9.40
2024-03-16T00:09:29.384Z,9.40
2024-03-16T00:11:57.662Z,9.40
2024-03-16T00:14:25.901Z,9.40
2024-03-16T00:16:54.140Z,9.50
2024-03-16T00:19:22.587Z,9.50
2024-03-16T00:21:52.049Z,9.50
2024-03-16T00:24:21.638Z,9.60
2024-03-16T00:26:50.139Z,9.60
2024-03-16T00:29:18.965Z,9.70
2024-03-16T00:31:50.214Z,9.70
2024-03-16T00:34:18.571Z,9.80
2024-03-16T00:36:46.857Z,9.80
2024-03-16T00:39:19.451Z,9.80
2024-03-16T00:41:48.936Z,9.90
2024-03-16T00:44:17.168Z,9.90
2024-03-16T00:46:45.494Z,9.90
2024-03-16T00:49:13.835Z,10.00
2024-03-16T00:51:42.584Z,10.00
2024-03-16T00:54:12.560Z,10.10
2024-03-16T00:56:40.897Z,10.10
2024-03-16T00:59:09.393Z,10.10
2024-03-16T01:01:38.161Z,10.10
2024-03-16T01:04:06.752Z,10.20
2024-03-16T01:06:35.190Z,10.20
2024-03-16T01:09:03.977Z,10.20
2024-03-16T01:11:33.564Z,10.20
2024-03-16T01:14:01.801Z,10.20
2024-03-16T01:16:30.137Z,10.20
2024-03-16T01:18:58.397Z,10.20
2024-03-16T01:21:26.694Z,10.20
2024-03-16T01:23:54.986Z,10.30
2024-03-16T01:26:23.332Z,10.30
2024-03-16T01:28:51.825Z,10.30
2024-03-16T01:31:20.148Z,10.30
2024-03-16T01:33:48.423Z,10.40
2024-03-16T01:36:16.764Z,10.30
2024-03-16T01:38:45.306Z,10.40
2024-03-16T01:41:14.100Z,10.40
2024-03-16T01:43:42.341Z,10.50
2024-03-16T01:46:10.991Z,10.40
2024-03-16T01:48:39.335Z,10.50
2024-03-16T01:51:08.453Z,10.50
2024-03-16T01:53:36.781Z,10.50
2024-03-16T01:56:05.230Z,10.50
2024-03-16T01:58:37.325Z,10.50
2024-03-16T02:01:06.212Z,10.50
2024-03-16T02:03:34.519Z,10.50
2024-03-16T02:06:02.787Z,10.50
2024-03-16T02:08:31.387Z,10.50
2024-03-16T02:10:59.694Z,10.50
2024-03-16T02:13:27.968Z,10.50
2024-03-16T02:15:56.384Z,10.50
2024-03-16T02:18:24.682Z,10.50
2024-03-16T02:20:52.940Z,10.50
2024-03-16T02:23:21.343Z,10.50
2024-03-16T02:25:49.662Z,10.50
2024-03-16T02:28:17.981Z,10.50
2024-03-16T02:30:46.519Z,10.50
2024-03-16T02:33:15.439Z,10.50
2024-03-16T02:35:44.589Z,10.50
2024-03-16T02:38:12.813Z,10.50
2024-03-16T02:40:41.185Z,10.50
2024-03-16T02:43:10.696Z,10.50
2024-03-16T02:45:39.236Z,10.50
2024-03-16T02:48:07.982Z,10.50
2024-03-16T02:50:36.288Z,10.50
2024-03-16T02:53:05.072Z,10.50
2024-03-16T02:55:33.386Z,10.50
2024-03-16T02:58:01.683Z,10.60
2024-03-16T03:00:30.000Z,10.60
2024-03-16T03:02:58.667Z,10.60
2024-03-16T03:05:26.988Z,10.60
2024-03-16T03:07:55.210Z,10.50
2024-03-16T03:10:24.005Z,10.50
2024-03-16T03:12:52.316Z,10.50
2024-03-16T03:15:21.215Z,10.50
2024-03-16T03:17:49.733Z,10.50
2024-03-16T03:20:22.019Z,10.60
2024-03-16T03:22:51.977Z,10.60
2024-03-16T03:25:22.918Z,10.60
2024-03-16T03:27:51.502Z,10.60
2024-03-16T03:30:19.781Z,10.60
2024-03-16T03:32:48.122Z,10.60
2024-03-16T03:35:16.406Z,10.60
2024-03-16T03:37:44.668Z,10.60
2024-03-16T03:40:13.305Z,10.60
2024-03-16T03:42:47.490Z,10.60
2024-03-16T03:45:26.661Z,10.60
2024-03-16T03:48:04.575Z,10.60
2024-03-16T03:50:34.330Z,10.60
2024-03-16T03:53:04.331Z,10.60
2024-03-16T03:55:32.754Z,10.60
2024-03-16T03:58:03.475Z,10.60
2024-03-16T04:00:32.091Z,10.60
2024-03-16T04:03:00.416Z,10.60
2024-03-16T04:05:29.110Z,10.60
2024-03-16T04:07:57.546Z,10.60
2024-03-16T04:10:25.790Z,10.60
2024-03-16T04:12:54.024Z,10.60
2024-03-16T04:15:22.387Z,10.60
2024-03-16T04:17:51.674Z,10.60
2024-03-16T04:20:19.980Z,10.50
2024-03-16T04:22:48.682Z,10.60
2024-03-16T04:25:17.484Z,10.60
2024-03-16T04:27:46.097Z,10.60
2024-03-16T04:30:14.366Z,10.50
2024-03-16T04:32:42.713Z,10.50
2024-03-16T04:35:11.271Z,10.50
2024-03-16T04:37:39.670Z,10.40
2024-03-16T04:40:09.059Z,10.40
2024-03-16T04:42:37.390Z,10.30
2024-03-16T04:45:06.066Z,10.30
2024-03-16T04:47:34.414Z,10.30
2024-03-16T04:50:02.661Z,10.20
2024-03-16T04:52:30.924Z,10.20
2024-03-16T04:54:59.277Z,10.20
2024-03-16T04:57:27.560Z,10.10
2024-03-16T04:59:55.771Z,10.10
2024-03-16T05:02:24.017Z,10.00
2024-03-16T05:04:52.565Z,10.00
2024-03-16T05:07:22.094Z,9.90
2024-03-16T05:09:51.701Z,9.90
2024-03-16T05:12:20.261Z,9.90
2024-03-16T05:14:48.531Z,9.80
2024-03-16T05:17:16.780Z,9.80
2024-03-16T05:19:45.789Z,9.70
2024-03-16T05:22:14.126Z,9.70
2024-03-16T05:24:42.435Z,9.60
2024-03-16T05:27:11.478Z,9.60
2024-03-16T05:29:39.736Z,9.60
2024-03-16T05:32:08.135Z,9.50
2024-03-16T05:34:36.426Z,9.50
2024-03-16T05:37:04.745Z,9.50
2024-03-16T05:39:34.122Z,9.40
2024-03-16T05:42:02.466Z,9.40
2024-03-16T05:44:30.712Z,9.40
2024-03-16T05:46:58.967Z,9.40
2024-03-16T05:49:28.141Z,9.40
2024-03-16T05:51:56.639Z,9.40
2024-03-16T05:54:24.918Z,9.40
2024-03-16T05:56:53.183Z,9.50
2024-03-16T05:59:21.422Z,9.60
2024-03-16T06:01:49.734Z,9.60
2024-03-16T06:04:21.098Z,9.60
2024-03-16T06:06:49.406Z,9.70
2024-03-16T06:09:17.673Z,9.70
2024-03-16T06:11:45.934Z,9.80
2024-03-16T06:14:14.156Z,9.80
2024-03-16T06:16:42.426Z,9.90
2024-03-16T06:19:13.556Z,9.90
2024-03-16T06:21:42.546Z,9.90
2024-03-16T06:24:11.152Z,10.00
2024-03-16T06:26:40.807Z,10.10
2024-03-16T06:29:10.355Z,10.10
2024-03-16T06:31:40.002Z,10.10
2024-03-16T06:34:08.669Z,10.10
2024-03-16T06:36:37.658Z,10.20
2024-03-16T06:39:08.354Z,10.30
2024-03-16T06:41:36.598Z,10.40
2024-03-16T06:44:04.868Z,10.40
2024-03-16T06:46:33.787Z,10.50
2024-03-16T06:49:07.736Z,10.50
2024-03-16T06:51:36.774Z,10.70
2024-03-16T06:54:06.406Z,10.80
2024-03-16T06:56:34.708Z,10.90
2024-03-16T06:59:02.999Z,11.00
2024-03-16T07:01:31.379Z,11.10
2024-03-16T07:03:59.758Z,11.20
2024-03-16T07:06:28.199Z,11.20
2024-03-16T07:08:59.114Z,11.20
2024-03-16T07:11:27.466Z,11.30
2024-03-16T07:13:56.067Z,11.30
2024-03-16T07:16:24.715Z,11.30
2024-03-16T07:18:53.036Z,11.40
2024-03-16T07:21:25.129Z,11.50
2024-03-16T07:23:54.773Z,11.50
2024-03-16T07:26:23.034Z,11.70
2024-03-16T07:28:51.544Z,11.80
2024-03-16T07:31:19.891Z,11.80
2024-03-16T07:33:48.265Z,11.80
2024-03-16T07:36:16.656Z,11.90
2024-03-16T07:38:46.048Z,12.00
2024-03-16T07:41:15.161Z,12.10
2024-03-16T07:43:45.335Z,12.30
2024-03-16T07:46:13.773Z,12.50
2024-03-16T07:48:42.116Z,12.90
2024-03-16T07:51:11.008Z,13.00
2024-03-16T07:53:39.267Z,13.20
2024-03-16T07:56:10.576Z,13.30
2024-03-16T07:58:39.282Z,13.20
2024-03-16T08:01:10.216Z,13.30
2024-03-16T08:03:39.000Z,13.40
2024-03-16T08:06:08.929Z,13.30
2024-03-16T08:08:37.345Z,13.60
2024-03-16T08:11:06.406Z,13.60
2024-03-16T08:13:35.720Z,13.80
2024-03-16T08:16:04.490Z,14.10
2024-03-16T08:18:32.817Z,14.10
2024-03-16T08:21:01.384Z,14.30
2024-03-16T08:23:30.742Z,14.40
2024-03-16T08:25:59.418Z,14.50
2024-03-16T08:28:28.508Z,14.50
2024-03-16T08:30:56.922Z,14.30
2024-03-16T08:33:25.684Z,14.30
2024-03-16T08:35:54.014Z,14.20
2024-03-16T08:38:22.269Z,14.60
2024-03-16T08:40:50.554Z,15.00
2024-03-16T08:43:18.904Z,15.40
2024-03-16T08:45:48.064Z,15.80
2024-03-16T08:48:16.525Z,15.70
2024-03-16T08:50:44.883Z,16.30
2024-03-16T08:53:13.107Z,16.10
2024-03-16T08:55:41.500Z,15.60
2024-03-16T08:58:10.261Z,15.30
2024-03-16T09:00:38.599Z,15.00
2024-03-16T09:03:07.099Z,15.00
2024-03-16T09:05:35.428Z,14.70
2024-03-16T09:08:03.693Z,14.90
2024-03-16T09:10:31.929Z,14.70
2024-03-16T09:13:00.314Z,14.90
2024-03-16T09:15:28.665Z,15.40
2024-03-16T09:17:57.008Z,15.30
2024-03-16T09:20:25.241Z,15.40
2024-03-16T09:22:57.121Z,15.20
2024-03-16T09:25:25.402Z,15.00
2024-03-16T09:27:53.763Z,14.90
2024-03-16T09:30:22.807Z,14.70
2024-03-16T09:32:51.919Z,14.70
2024-03-16T09:35:20.172Z,14.10
2024-03-16T09:37:48.875Z,14.20
2024-03-16T09:40:17.331Z,14.40
2024-03-16T09:42:45.704Z,14.30
